Time;durP1;ratioP1;P1;durP2;ratioP2;P2;SDS_P1;SDS_P2;PMS_P1;PMS_P2;Temp;Humidity;BMP_temperature;BMP_pressure;BME280_temperature;BME280_humidity;BME280_pressure;Samples;Min_cycle;Max_cycle;Signal;HPM_P1;HPM_P2
2022/09/07 00:00:28;;;;;;;2.97;2.53;;;;;25.50;100292.00;;;;2086694;28;20705;-53
2022/09/07 00:01:29;;;;;;;4.53;2.97;;;;;25.50;100297.00;;;;2088232;28;20685;-54
2022/09/07 00:02:29;;;;;;;4.40;2.40;;;;;25.50;100273.00;;;;2087101;28;20494;-53
2022/09/07 00:03:29;;;;;;;4.33;2.70;;;;;25.50;100291.00;;;;2087794;28;20223;-57
2022/09/07 00:04:30;;;;;;;4.70;2.60;;;;;25.50;100289.00;;;;2088540;28;20224;-56
2022/09/07 00:05:30;;;;;;;3.53;2.20;;;;;25.50;100290.00;;;;2091259;28;20260;-55
2022/09/07 00:06:33;;;;;;;3.07;2.40;;;;;25.50;100304.00;;;;2088290;28;20227;-53
2022/09/07 00:07:33;;;;;;;5.30;2.73;;;;;25.50;100294.00;;;;2086386;28;20227;-53
2022/09/07 00:08:34;;;;;;;6.10;2.33;;;;;25.50;100294.00;;;;2087459;28;20877;-54
2022/09/07 00:09:34;;;;;;;3.20;2.90;;;;;25.50;100290.00;;;;2088295;28;20217;-53
2022/09/07 00:10:35;;;;;;;5.20;2.47;;;;;25.50;100296.00;;;;2088259;28;20228;-53
2022/09/07 00:11:35;;;;;;;2.50;2.30;;;;;25.50;100311.00;;;;2088292;28;20306;-54
2022/09/07 00:12:35;;;;;;;2.10;1.90;;;;;25.50;100292.00;;;;2088175;28;20615;-54
2022/09/07 00:13:37;;;;;;;3.00;2.70;;;;;25.50;100290.00;;;;2087202;28;20217;-54
2022/09/07 00:14:37;;;;;;;2.13;1.93;;;;;25.50;100290.00;;;;2070818;28;20790;-53
2022/09/07 00:15:38;;;;;;;4.87;2.40;;;;;25.50;100297.00;;;;2079235;28;20453;-54
2022/09/07 00:16:39;;;;;;;5.03;2.47;;;;;25.50;100285.00;;;;2087996;28;20681;-53
2022/09/07 00:17:39;;;;;;;3.27;2.50;;;;;25.50;100288.00;;;;2087264;28;20459;-53
2022/09/07 00:18:39;;;;;;;4.30;2.27;;;;;25.50;100287.00;;;;2087882;28;20208;-53
2022/09/07 00:19:40;;;;;;;5.00;1.87;;;;;25.50;100294.00;;;;2087985;28;20212;-54
2022/09/07 00:20:40;;;;;;;4.50;2.27;;;;;25.50;100290.00;;;;2088050;28;20239;-54
2022/09/07 00:21:40;;;;;;;3.13;2.27;;;;;25.50;100275.00;;;;2088084;28;20221;-54
2022/09/07 00:22:41;;;;;;;2.70;2.03;;;;;25.50;100275.00;;;;2087969;28;20213;-54
2022/09/07 00:23:41;;;;;;;3.03;2.40;;;;;25.50;100286.00;;;;2087950;28;20232;-54
2022/09/07 00:24:42;;;;;;;2.37;2.17;;;;;25.50;100274.00;;;;2087676;28;20279;-54
2022/09/07 00:25:42;;;;;;;5.13;2.20;;;;;25.50;100276.00;;;;2087986;28;20223;-54
2022/09/07 00:26:42;;;;;;;4.47;2.00;;;;;25.50;100278.00;;;;2087880;28;20217;-54
2022/09/07 00:27:42;;;;;;;3.40;2.30;;;;;25.50;100276.00;;;;2086993;28;20564;-53
2022/09/07 00:28:43;;;;;;;4.73;2.60;;;;;25.50;100287.00;;;;2088109;28;20681;-54
2022/09/07 00:29:44;;;;;;;2.37;1.90;;;;;25.50;100281.00;;;;2087330;28;20758;-54
2022/09/07 00:30:45;;;;;;;2.33;1.80;;;;;25.50;100288.00;;;;2087303;28;20234;-54
2022/09/07 00:31:45;;;;;;;2.20;1.90;;;;;25.50;100289.00;;;;2088096;28;20975;-54
2022/09/07 00:32:45;;;;;;;3.40;2.07;;;;;25.50;100289.00;;;;2087958;28;20220;-53
2022/09/07 00:33:47;;;;;;;5.13;2.07;;;;;25.50;100288.00;;;;2087941;28;20209;-53
2022/09/07 00:34:49;;;;;;;2.80;1.77;;;;;25.50;100295.00;;;;2078378;28;20221;-54
2022/09/07 00:35:49;;;;;;;4.03;1.73;;;;;25.50;100296.00;;;;2079194;28;20463;-53
2022/09/07 00:36:50;;;;;;;1.83;1.63;;;;;25.50;100303.00;;;;2087823;28;20485;-54
2022/09/07 00:37:50;;;;;;;2.10;1.70;;;;;25.50;100308.00;;;;2085221;28;20231;-53
2022/09/07 00:38:50;;;;;;;2.53;1.87;;;;;25.50;100313.00;;;;2087936;28;20244;-53
2022/09/07 00:39:51;;;;;;;1.60;1.40;;;;;25.50;100316.00;;;;2087177;28;20244;-52
2022/09/07 00:40:52;;;;;;;2.40;2.17;;;;;25.50;100313.00;;;;2091080;28;20227;-53
2022/09/07 00:41:52;;;;;;;3.87;2.00;;;;;25.50;100312.00;;;;2087254;28;20283;-53
2022/09/07 00:42:52;;;;;;;2.03;1.53;;;;;25.50;100320.00;;;;2087270;28;20456;-54
2022/09/07 00:43:57;;;;;;;2.10;1.67;;;;;25.50;100309.00;;;;2088646;28;20289;-53
2022/09/07 00:45:06;;;;;;;3.23;1.90;;;;;25.50;100301.00;;;;2095562;28;20220;-53
2022/09/07 00:46:21;;;;;;;2.03;1.57;;;;;25.50;100301.00;;;;2095473;28;20944;-54
2022/09/07 00:47:25;;;;;;;1.63;1.53;;;;;25.50;100298.00;;;;2094258;28;20462;-54
2022/09/07 00:48:43;;;;;;;2.60;1.57;;;;;25.40;100295.00;;;;2087825;28;20443;-54
2022/09/07 00:49:45;;;;;;;1.73;1.40;;;;;25.40;100300.00;;;;2095114;28;20470;-54
2022/09/07 00:50:47;;;;;;;2.60;1.60;;;;;25.50;100297.00;;;;2094507;28;20973;-54
2022/09/07 00:51:53;;;;;;;2.03;1.50;;;;;25.50;100296.00;;;;2086999;28;20462;-54
2022/09/07 00:52:57;;;;;;;1.47;1.10;;;;;25.50;100289.00;;;;2086909;28;20986;-54
2022/09/07 00:54:04;;;;;;;1.67;1.25;;;;;25.40;100283.00;;;;2088296;28;20968;-54
2022/09/07 00:55:06;;;;;;;2.40;1.33;;;;;25.50;100279.00;;;;2096957;28;20936;-53
2022/09/07 00:56:07;;;;;;;1.83;1.47;;;;;25.50;100274.00;;;;2097220;28;20460;-53
2022/09/07 00:57:07;;;;;;;1.93;1.37;;;;;25.50;100275.00;;;;2088531;28;20458;-58
2022/09/07 00:58:07;;;;;;;2.23;1.53;;;;;25.40;100278.00;;;;2088458;28;20697;-57
2022/09/07 00:59:08;;;;;;;3.33;1.77;;;;;25.40;100276.00;;;;2097610;28;20205;-56
2022/09/07 01:00:09;;;;;;;1.60;1.33;;;;;25.40;100274.00;;;;2097885;28;20721;-54
2022/09/07 01:01:09;;;;;;;2.47;1.27;;;;;25.40;100265.00;;;;2096949;28;20210;-54
2022/09/07 01:02:11;;;;;;;1.90;1.43;;;;;25.50;100265.00;;;;2088380;28;20213;-54
2022/09/07 01:03:11;;;;;;;1.63;1.30;;;;;25.50;100268.00;;;;2089356;28;20209;-52
2022/09/07 01:04:11;;;;;;;2.70;1.23;;;;;25.40;100272.00;;;;2088423;28;20451;-53
2022/09/07 01:05:20;;;;;;;2.30;1.30;;;;;25.40;100268.00;;;;2088365;28;20216;-54
2022/09/07 01:06:22;;;;;;;2.17;1.50;;;;;25.50;100273.00;;;;2094544;28;20212;-53
2022/09/07 01:07:23;;;;;;;1.57;1.40;;;;;25.50;100261.00;;;;2088357;28;20489;-51
2022/09/07 01:08:23;;;;;;;1.50;1.20;;;;;25.40;100275.00;;;;2089031;28;20455;-52
2022/09/07 01:09:24;;;;;;;3.53;1.20;;;;;25.40;100285.00;;;;2097681;28;20216;-52
2022/09/07 01:10:26;;;;;;;1.60;1.20;;;;;25.40;100274.00;;;;2089358;28;20201;-52
2022/09/07 01:11:27;;;;;;;2.60;1.10;;;;;25.40;100293.00;;;;2089505;28;20483;-53
2022/09/07 01:12:27;;;;;;;1.70;1.10;;;;;25.40;100270.00;;;;2095227;28;21028;-53
2022/09/07 01:13:28;;;;;;;1.40;1.00;;;;;25.40;100267.00;;;;2095700;28;20258;-53
2022/09/07 01:14:30;;;;;;;1.30;1.00;;;;;25.40;100265.00;;;;2095475;28;20997;-53
2022/09/07 01:15:45;;;;;;;2.33;1.10;;;;;25.40;100259.00;;;;2088485;28;20754;-53
2022/09/07 01:17:01;;;;;;;1.80;1.10;;;;;25.40;100251.00;;;;2090894;28;20450;-53
2022/09/07 01:18:30;;;;;;;2.70;1.20;;;;;25.40;100238.00;;;;2089360;28;20450;-53
2022/09/07 01:19:30;;;;;;;1.50;1.00;;;;;25.40;100236.00;;;;2084915;28;20443;-53
2022/09/07 01:20:50;;;;;;;2.80;1.23;;;;;25.40;100229.00;;;;2088180;28;20447;-53
2022/09/07 01:22:07;;;;;;;1.70;0.90;;;;;25.40;100222.00;;;;2091699;28;20700;-53
2022/09/07 01:23:57;;;;;;;1.60;1.10;;;;;25.40;100219.00;;;;2086674;28;20503;-53
2022/09/07 01:25:09;;;;;;;1.87;1.10;;;;;25.40;100225.00;;;;2084042;28;21010;-53
2022/09/07 01:26:46;;;;;;;3.00;0.90;;;;;25.40;100227.00;;;;2089884;28;20473;-54
2022/09/07 01:27:50;;;;;;;2.77;1.37;;;;;25.40;100240.00;;;;2088311;28;20775;-54
2022/09/07 01:28:58;;;;;;;1.20;0.90;;;;;25.40;100241.00;;;;2087488;28;20506;-53
2022/09/07 01:30:08;;;;;;;3.20;1.10;;;;;25.40;100232.00;;;;2079802;28;20881;-54
2022/09/07 01:31:26;;;;;;;2.20;0.90;;;;;25.40;100244.00;;;;2082372;28;20452;-53
2022/09/07 01:32:33;;;;;;;1.53;0.83;;;;;25.40;100239.00;;;;2080926;28;20266;-53
2022/09/07 01:33:48;;;;;;;1.53;0.80;;;;;25.40;100233.00;;;;2083342;28;20460;-53
2022/09/07 01:34:51;;;;;;;2.92;1.00;;;;;25.40;100224.00;;;;2090430;28;20989;-53
2022/09/07 01:36:03;;;;;;;2.17;1.10;;;;;25.40;100224.00;;;;2098648;28;20277;-53
2022/09/07 01:37:11;;;;;;;2.63;0.90;;;;;25.40;100228.00;;;;2091541;28;20444;-53
2022/09/07 01:38:22;;;;;;;1.43;0.90;;;;;25.40;100218.00;;;;2078248;28;20571;-53
2022/09/07 01:39:25;;;;;;;1.70;1.37;;;;;25.40;100218.00;;;;2089439;28;20814;-54
2022/09/07 01:40:56;;;;;;;1.50;0.80;;;;;25.40;100223.00;;;;2087155;28;20490;-54
2022/09/07 01:42:09;;;;;;;1.60;1.00;;;;;25.40;100217.00;;;;2090756;28;20537;-53
2022/09/07 01:43:11;;;;;;;2.03;0.90;;;;;25.40;100208.00;;;;2080181;28;20560;-53
2022/09/07 01:44:21;;;;;;;2.23;0.90;;;;;25.30;100217.00;;;;2079050;28;20459;-53
2022/09/07 01:45:24;;;;;;;1.30;0.80;;;;;25.40;100203.00;;;;2072665;28;20545;-54
2022/09/07 01:46:32;;;;;;;1.70;1.07;;;;;25.40;100202.00;;;;2076695;28;20519;-53
2022/09/07 01:47:38;;;;;;;2.35;1.15;;;;;25.40;100198.00;;;;2083529;28;21333;-55
2022/09/07 01:48:39;;;;;;;1.60;1.10;;;;;25.40;100182.00;;;;2088051;28;20216;-53
2022/09/07 01:49:47;;;;;;;1.83;0.90;;;;;25.30;100190.00;;;;2080477;28;20464;-53
2022/09/07 01:50:58;;;;;;;1.60;0.80;;;;;25.30;100190.00;;;;2068458;28;20214;-54
2022/09/07 01:52:02;;;;;;;1.60;0.90;;;;;25.30;100191.00;;;;2088332;28;20228;-53
2022/09/07 01:53:14;;;;;;;1.03;0.70;;;;;25.30;100195.00;;;;2085772;28;20451;-53
2022/09/07 01:54:21;;;;;;;1.30;0.75;;;;;25.30;100173.00;;;;2079704;28;20883;-53
2022/09/07 01:55:28;;;;;;;1.20;0.80;;;;;25.40;100194.00;;;;2076173;28;20217;-53
2022/09/07 01:56:34;;;;;;;1.47;0.90;;;;;25.30;100191.00;;;;2080358;28;20491;-53
2022/09/07 01:57:39;;;;;;;3.93;0.90;;;;;25.30;100189.00;;;;2082606;28;20954;-53
2022/09/07 01:58:43;;;;;;;1.83;1.07;;;;;25.30;100181.00;;;;2085845;28;20459;-53
2022/09/07 01:59:48;;;;;;;1.77;0.80;;;;;25.30;100179.00;;;;2083194;28;20896;-53
2022/09/07 02:00:53;;;;;;;1.40;0.83;;;;;25.30;100177.00;;;;2078453;28;20452;-54
2022/09/07 02:01:57;;;;;;;2.55;0.90;;;;;25.30;100172.00;;;;2078834;28;20894;-53
2022/09/07 02:03:03;;;;;;;1.90;1.08;;;;;25.40;100176.00;;;;2083723;28;20296;-53
2022/09/07 02:04:09;;;;;;;1.80;1.00;;;;;25.40;100147.00;;;;2086677;28;20236;-53
2022/09/07 02:05:12;;;;;;;1.33;0.70;;;;;25.40;100155.00;;;;2085826;28;20462;-53
2022/09/07 02:06:18;;;;;;;1.50;0.87;;;;;25.30;100133.00;;;;2084147;28;20589;-53
2022/09/07 02:07:23;;;;;;;1.73;0.80;;;;;25.30;100157.00;;;;2081458;28;20455;-53
2022/09/07 02:08:27;;;;;;;2.00;0.80;;;;;25.30;100161.00;;;;2087269;28;20831;-53
2022/09/07 02:09:30;;;;;;;1.87;0.90;;;;;25.30;100157.00;;;;2084619;28;20829;-53
2022/09/07 02:10:47;;;;;;;1.57;0.77;;;;;25.30;100157.00;;;;2086918;28;20926;-53
2022/09/07 02:11:49;;;;;;;3.47;1.03;;;;;25.30;100156.00;;;;2085488;28;20454;-53
2022/09/07 02:12:55;;;;;;;2.10;1.00;;;;;25.30;100152.00;;;;2086839;28;20490;-55
2022/09/07 02:13:59;;;;;;;2.17;0.80;;;;;25.30;100147.00;;;;2079790;28;20213;-53
2022/09/07 02:15:01;;;;;;;1.60;0.70;;;;;25.30;100135.00;;;;2087457;28;21415;-53
2022/09/07 02:16:08;;;;;;;1.90;0.97;;;;;25.30;100134.00;;;;2092783;28;20447;-53
2022/09/07 02:17:12;;;;;;;1.30;0.60;;;;;25.30;100141.00;;;;2077151;28;20467;-53
2022/09/07 02:18:15;;;;;;;2.33;0.80;;;;;25.30;100139.00;;;;2083484;28;20450;-53
2022/09/07 02:19:15;;;;;;;1.53;0.80;;;;;25.30;100142.00;;;;2093494;28;20453;-53
2022/09/07 02:20:28;;;;;;;1.30;0.80;;;;;25.30;100147.00;;;;2089474;28;20971;-53
2022/09/07 02:21:32;;;;;;;1.88;0.98;;;;;25.40;100142.00;;;;2079375;28;20693;-53
2022/09/07 02:22:33;;;;;;;2.37;0.93;;;;;25.30;100143.00;;;;2069167;28;20221;-53
2022/09/07 02:23:38;;;;;;;2.40;0.73;;;;;25.30;100119.00;;;;2071528;28;20881;-53
2022/09/07 02:24:40;;;;;;;1.53;0.80;;;;;25.30;100017.00;;;;2092085;28;20454;-53
2022/09/07 02:25:46;;;;;;;2.50;0.87;;;;;25.30;100139.00;;;;2080449;28;20472;-53
2022/09/07 02:26:47;;;;;;;1.70;0.60;;;;;25.30;100134.00;;;;2082106;28;20494;-53
2022/09/07 02:27:54;;;;;;;1.75;0.80;;;;;25.30;100128.00;;;;2080392;28;20848;-53
2022/09/07 02:28:54;;;;;;;1.40;0.70;;;;;25.30;100130.00;;;;2073636;28;20214;-53
2022/09/07 02:29:54;;;;;;;1.33;0.73;;;;;25.30;100134.00;;;;2082436;28;20210;-54
2022/09/07 02:30:55;;;;;;;1.50;0.77;;;;;25.30;100136.00;;;;2093645;28;20223;-54
2022/09/07 02:31:55;;;;;;;1.30;0.70;;;;;25.30;100131.00;;;;2089016;28;20719;-54
2022/09/07 02:32:55;;;;;;;1.30;0.70;;;;;25.30;100129.00;;;;2094887;28;20208;-53
2022/09/07 02:33:56;;;;;;;2.23;0.87;;;;;25.30;100128.00;;;;2091265;28;20250;-54
2022/09/07 02:34:56;;;;;;;1.30;0.90;;;;;25.30;100103.00;;;;2093681;28;20278;-53
2022/09/07 02:35:56;;;;;;;2.70;0.70;;;;;25.30;100114.00;;;;2078436;28;20209;-53
2022/09/07 02:36:57;;;;;;;1.13;0.80;;;;;25.30;100123.00;;;;2078689;28;20236;-53
2022/09/07 02:37:57;;;;;;;1.67;0.70;;;;;25.30;99976.00;;;;2080253;28;20220;-54
2022/09/07 02:38:58;;;;;;;1.83;0.90;;;;;25.30;100114.00;;;;2077889;28;20252;-53
2022/09/07 02:39:59;;;;;;;2.37;0.90;;;;;25.30;100116.00;;;;2084113;28;20695;-53
2022/09/07 02:41:00;;;;;;;1.30;0.90;;;;;25.30;100119.00;;;;2090643;28;20232;-53
2022/09/07 02:42:00;;;;;;;1.43;0.70;;;;;25.30;100113.00;;;;2087443;28;20458;-53
2022/09/07 02:43:05;;;;;;;1.53;0.87;;;;;25.30;100109.00;;;;2092001;28;20448;-53
2022/09/07 02:44:09;;;;;;;1.10;0.60;;;;;25.30;100108.00;;;;2086709;28;20216;-53
2022/09/07 02:45:10;;;;;;;1.80;0.80;;;;;25.30;100114.00;;;;2080108;28;21148;-53
2022/09/07 02:46:23;;;;;;;3.23;0.80;;;;;25.30;100108.00;;;;2081688;28;20460;-53
2022/09/07 02:47:51;;;;;;;1.20;0.67;;;;;25.30;100088.00;;;;2075082;28;20445;-58
2022/09/07 02:49:22;;;;;;;1.60;0.70;;;;;25.30;100098.00;;;;2086970;28;20446;-53
2022/09/07 02:50:36;;;;;;;1.27;0.77;;;;;25.30;100090.00;;;;2069614;28;20453;-53
2022/09/07 02:51:43;;;;;;;2.80;0.90;;;;;25.30;100103.00;;;;2087898;28;20462;-53
2022/09/07 02:53:21;;;;;;;1.40;0.70;;;;;25.30;100104.00;;;;2086797;28;20546;-53
2022/09/07 02:54:44;;;;;;;1.17;0.60;;;;;25.30;100109.00;;;;2083139;28;20447;-53
2022/09/07 02:55:56;;;;;;;2.35;0.90;;;;;25.40;100097.00;;;;2064053;28;20441;-52
2022/09/07 02:57:24;;;;;;;2.33;0.93;;;;;25.40;100103.00;;;;2090562;28;20287;-53
2022/09/07 02:58:46;;;;;;;2.13;0.80;;;;;24.90;100096.00;;;;2092506;28;20950;-52
2022/09/07 03:00:09;;;;;;;1.37;0.63;;;;;25.30;100106.00;;;;2094430;28;20451;-52
2022/09/07 03:01:17;;;;;;;2.92;0.80;;;;;25.30;100078.00;;;;2094400;28;20843;-52
2022/09/07 03:02:30;;;;;;;2.20;0.90;;;;;25.20;100094.00;;;;2094855;28;20287;-52
2022/09/07 03:03:52;;;;;;;1.30;0.60;;;;;25.20;100098.00;;;;2079893;28;20464;-52
2022/09/07 03:05:13;;;;;;;1.53;0.70;;;;;25.30;100095.00;;;;2081695;28;20579;-52
2022/09/07 03:06:37;;;;;;;3.10;0.80;;;;;25.20;100121.00;;;;2089510;28;20439;-52
2022/09/07 03:08:04;;;;;;;1.00;0.60;;;;;25.30;100106.00;;;;2093222;28;20457;-52
2022/09/07 03:09:07;;;;;;;2.10;0.70;;;;;25.30;100086.00;;;;2092438;28;20463;-52
2022/09/07 03:10:08;;;;;;;1.38;0.60;;;;;25.30;100094.00;;;;2084681;28;20231;-53
2022/09/07 03:11:08;;;;;;;2.00;0.70;;;;;25.30;100105.00;;;;2078298;28;20213;-52
2022/09/07 03:12:08;;;;;;;2.30;0.90;;;;;25.20;100109.00;;;;2085293;28;20209;-52
2022/09/07 03:13:19;;;;;;;1.73;0.73;;;;;25.20;100106.00;;;;2078140;28;20206;-52
2022/09/07 03:14:21;;;;;;;1.40;0.73;;;;;25.30;100110.00;;;;2093058;28;20215;-52
2022/09/07 03:15:23;;;;;;;1.23;0.67;;;;;25.20;100106.00;;;;2088007;28;20451;-52
2022/09/07 03:16:23;;;;;;;1.53;0.50;;;;;25.20;100107.00;;;;2095152;28;20454;-52
2022/09/07 03:17:23;;;;;;;1.20;0.70;;;;;25.20;100112.00;;;;2087675;28;20496;-52
2022/09/07 03:18:24;;;;;;;1.63;0.60;;;;;25.20;100109.00;;;;2077735;28;20217;-52
2022/09/07 03:19:25;;;;;;;1.27;0.60;;;;;25.20;100109.00;;;;2086135;28;20209;-52
2022/09/07 03:20:25;;;;;;;1.70;0.80;;;;;25.20;100100.00;;;;2087150;28;20258;-52
2022/09/07 03:21:26;;;;;;;1.83;0.60;;;;;25.20;100141.00;;;;2086692;28;20452;-52
2022/09/07 03:22:27;;;;;;;3.20;0.50;;;;;25.20;100101.00;;;;2093687;28;20703;-52
2022/09/07 03:23:27;;;;;;;2.73;0.60;;;;;25.20;100100.00;;;;2095061;28;20211;-52
2022/09/07 03:24:27;;;;;;;0.90;0.50;;;;;25.20;100106.00;;;;2094356;28;20469;-52
2022/09/07 03:25:28;;;;;;;0.90;0.50;;;;;25.20;100109.00;;;;2088374;28;20217;-52
2022/09/07 03:26:28;;;;;;;1.37;0.70;;;;;25.20;100113.00;;;;2088405;28;20212;-52
2022/09/07 03:27:30;;;;;;;1.33;0.60;;;;;25.20;100107.00;;;;2087621;28;20224;-52
2022/09/07 03:28:30;;;;;;;2.47;0.60;;;;;25.20;100110.00;;;;2087263;28;20280;-52
2022/09/07 03:29:31;;;;;;;1.27;0.63;;;;;25.20;100107.00;;;;2089767;28;20456;-52
2022/09/07 03:30:31;;;;;;;2.43;0.50;;;;;25.20;100109.00;;;;2096746;28;20254;-54
2022/09/07 03:31:32;;;;;;;1.00;0.60;;;;;25.20;100104.00;;;;2096795;28;20658;-52
2022/09/07 03:32:34;;;;;;;1.03;0.50;;;;;25.20;100106.00;;;;2096177;28;20904;-53
2022/09/07 03:33:34;;;;;;;1.23;0.60;;;;;25.20;100091.00;;;;2085790;28;20819;-52
2022/09/07 03:34:35;;;;;;;1.23;0.60;;;;;25.20;100110.00;;;;2087786;28;20221;-53
2022/09/07 03:35:35;;;;;;;1.80;0.70;;;;;25.20;100105.00;;;;2088511;28;20591;-52
2022/09/07 03:36:35;;;;;;;1.20;0.60;;;;;25.20;100114.00;;;;2091964;28;20220;-52
2022/09/07 03:37:36;;;;;;;0.83;0.53;;;;;25.20;100108.00;;;;2087895;28;20252;-52
2022/09/07 03:38:36;;;;;;;2.93;0.57;;;;;25.20;100106.00;;;;2088678;28;20231;-52
2022/09/07 03:39:36;;;;;;;2.90;0.80;;;;;25.20;100107.00;;;;2088452;28;20221;-52
2022/09/07 03:40:37;;;;;;;1.20;0.60;;;;;25.10;100103.00;;;;2089320;28;20286;-52
2022/09/07 03:41:37;;;;;;;1.23;0.60;;;;;25.20;100100.00;;;;2096542;28;20212;-52
2022/09/07 03:42:38;;;;;;;1.23;0.50;;;;;25.10;100104.00;;;;2096589;28;20459;-52
2022/09/07 03:43:38;;;;;;;1.03;0.50;;;;;25.10;100107.00;;;;2096833;28;20246;-52
2022/09/07 03:44:38;;;;;;;1.60;0.70;;;;;25.10;100109.00;;;;2092376;28;20813;-52
2022/09/07 03:45:39;;;;;;;0.90;0.50;;;;;25.10;100107.00;;;;2088489;28;20212;-52
2022/09/07 03:46:39;;;;;;;1.93;0.50;;;;;25.20;100108.00;;;;2086350;28;20634;-52
2022/09/07 03:47:39;;;;;;;1.03;0.60;;;;;25.20;100123.00;;;;2087767;28;20213;-52
2022/09/07 03:48:40;;;;;;;0.87;0.50;;;;;25.20;100104.00;;;;2088341;28;20220;-52
2022/09/07 03:49:40;;;;;;;1.60;0.60;;;;;25.20;100112.00;;;;2089777;28;20216;-52
2022/09/07 03:50:40;;;;;;;1.50;0.50;;;;;25.20;100112.00;;;;2096277;28;20216;-52
2022/09/07 03:51:41;;;;;;;0.87;0.53;;;;;25.10;100113.00;;;;2096418;28;20296;-52
2022/09/07 03:52:41;;;;;;;1.97;0.67;;;;;25.20;100119.00;;;;2096766;28;20216;-52
2022/09/07 03:53:43;;;;;;;1.27;0.50;;;;;25.20;100118.00;;;;2096284;28;20335;-52
2022/09/07 03:54:44;;;;;;;1.10;0.50;;;;;25.20;100107.00;;;;2090087;28;20362;-52
2022/09/07 03:55:54;;;;;;;1.00;0.50;;;;;25.20;100112.00;;;;2087612;28;20459;-52
2022/09/07 03:56:55;;;;;;;0.80;0.50;;;;;25.20;100116.00;;;;2085072;28;20213;-52
2022/09/07 03:57:55;;;;;;;0.83;0.47;;;;;25.20;100116.00;;;;2095123;28;20454;-52
2022/09/07 03:58:55;;;;;;;1.20;0.70;;;;;25.20;100119.00;;;;2087672;28;20235;-52
2022/09/07 03:59:56;;;;;;;1.60;0.50;;;;;25.20;100106.00;;;;2095176;28;20208;-52
2022/09/07 04:00:57;;;;;;;1.00;0.50;;;;;25.20;100101.00;;;;2087073;28;20217;-52
2022/09/07 04:01:57;;;;;;;1.13;0.50;;;;;25.10;100098.00;;;;2087066;28;20217;-52
2022/09/07 04:02:57;;;;;;;1.57;0.50;;;;;25.10;100116.00;;;;2087738;28;20532;-52
2022/09/07 04:03:58;;;;;;;0.83;0.50;;;;;25.20;100108.00;;;;2087979;28;20221;-52
2022/09/07 04:04:58;;;;;;;1.00;0.40;;;;;25.20;100110.00;;;;2087347;28;20219;-52
2022/09/07 04:05:59;;;;;;;0.70;0.30;;;;;25.20;100113.00;;;;2086597;28;20213;-52
2022/09/07 04:06:59;;;;;;;2.13;0.53;;;;;25.20;100114.00;;;;2087954;28;20227;-52
2022/09/07 04:08:00;;;;;;;1.43;0.50;;;;;25.10;100111.00;;;;2091187;28;20227;-52
2022/09/07 04:09:02;;;;;;;1.67;0.50;;;;;25.10;100116.00;;;;2096375;28;20234;-53
2022/09/07 04:10:03;;;;;;;0.90;0.40;;;;;25.20;100118.00;;;;2089290;28;20224;-52
2022/09/07 04:11:04;;;;;;;2.20;0.70;;;;;25.10;100075.00;;;;2087650;28;20311;-52
2022/09/07 04:12:04;;;;;;;1.20;0.60;;;;;25.10;100108.00;;;;2091164;28;20219;-52
2022/09/07 04:13:05;;;;;;;0.90;0.47;;;;;25.10;100121.00;;;;2087395;28;20829;-52
2022/09/07 04:14:06;;;;;;;0.90;0.60;;;;;25.10;100114.00;;;;2088284;28;20213;-52
2022/09/07 04:15:06;;;;;;;1.10;0.50;;;;;25.10;100111.00;;;;2087949;28;20295;-53
2022/09/07 04:16:28;;;;;;;1.23;0.40;;;;;25.10;100114.00;;;;2088288;28;20447;-53
2022/09/07 04:17:29;;;;;;;1.43;0.50;;;;;25.10;100118.00;;;;2087352;28;20213;-52
2022/09/07 04:18:29;;;;;;;0.90;0.50;;;;;25.10;100120.00;;;;2089420;28;20498;-52
2022/09/07 04:19:29;;;;;;;1.40;0.50;;;;;25.10;100111.00;;;;2094117;28;20216;-52
2022/09/07 04:20:30;;;;;;;0.83;0.50;;;;;25.10;100111.00;;;;2088035;28;20220;-53
2022/09/07 04:21:31;;;;;;;1.20;0.53;;;;;25.10;100112.00;;;;2087560;28;20374;-52
2022/09/07 04:22:31;;;;;;;1.42;0.60;;;;;24.60;100096.00;;;;2087755;28;21156;-52
2022/09/07 04:23:31;;;;;;;0.80;0.40;;;;;25.10;100113.00;;;;2087308;28;20224;-52
2022/09/07 04:24:32;;;;;;;0.80;0.47;;;;;25.10;100103.00;;;;2087709;28;20220;-52
2022/09/07 04:25:33;;;;;;;1.60;0.50;;;;;25.10;100098.00;;;;2087827;28;20366;-52
2022/09/07 04:26:34;;;;;;;1.83;0.60;;;;;25.10;100102.00;;;;2092061;28;20220;-53
2022/09/07 04:27:35;;;;;;;0.90;0.50;;;;;25.20;100107.00;;;;2095147;28;20384;-52
2022/09/07 04:28:35;;;;;;;2.17;0.80;;;;;25.10;100102.00;;;;2095698;28;20615;-52
2022/09/07 04:29:35;;;;;;;0.90;0.57;;;;;25.10;100108.00;;;;2095612;28;20228;-52
2022/09/07 04:30:36;;;;;;;0.90;0.50;;;;;25.00;99973.00;;;;2087385;28;20221;-53
2022/09/07 04:31:36;;;;;;;1.13;0.60;;;;;25.10;100103.00;;;;2087578;28;20204;-53
2022/09/07 04:32:36;;;;;;;0.70;0.50;;;;;25.10;100108.00;;;;2093873;28;20281;-52
2022/09/07 04:33:37;;;;;;;1.20;0.50;;;;;25.10;100107.00;;;;2094706;28;20232;-52
2022/09/07 04:34:37;;;;;;;2.30;0.70;;;;;25.10;100109.00;;;;2095003;28;20817;-53
2022/09/07 04:35:38;;;;;;;1.80;0.60;;;;;25.10;100100.00;;;;2094124;28;20222;-52
2022/09/07 04:36:39;;;;;;;0.70;0.40;;;;;25.10;100111.00;;;;2086548;28;20217;-56
2022/09/07 04:37:39;;;;;;;0.90;0.40;;;;;25.10;100107.00;;;;2085730;28;20979;-54
2022/09/07 04:38:39;;;;;;;1.17;0.50;;;;;25.10;100108.00;;;;2087222;28;20379;-54
2022/09/07 04:39:40;;;;;;;1.27;0.50;;;;;25.10;100124.00;;;;2087642;28;20209;-54
2022/09/07 04:40:40;;;;;;;0.90;0.50;;;;;25.10;100102.00;;;;2087358;28;20255;-53
2022/09/07 04:41:41;;;;;;;0.80;0.50;;;;;25.10;100109.00;;;;2087491;28;20220;-53
2022/09/07 04:42:41;;;;;;;1.10;0.50;;;;;25.10;100110.00;;;;2087290;28;20216;-53
2022/09/07 04:43:42;;;;;;;1.53;0.60;;;;;25.10;100115.00;;;;2087573;28;20626;-53
2022/09/07 04:44:42;;;;;;;1.33;0.70;;;;;25.10;100108.00;;;;2087321;28;20621;-53
2022/09/07 04:45:42;;;;;;;1.07;0.60;;;;;25.10;100127.00;;;;2087383;28;20692;-53
2022/09/07 04:46:43;;;;;;;1.03;0.70;;;;;25.10;100107.00;;;;2087275;28;20592;-53
2022/09/07 04:47:47;;;;;;;1.73;0.67;;;;;25.10;100101.00;;;;2086646;28;21155;-53
2022/09/07 04:48:52;;;;;;;1.27;0.60;;;;;25.10;100100.00;;;;2093229;28;20220;-53
2022/09/07 04:49:52;;;;;;;1.70;0.93;;;;;25.10;100106.00;;;;2088462;28;20470;-52
2022/09/07 04:50:52;;;;;;;0.77;0.57;;;;;25.10;100107.00;;;;2092409;28;20469;-53
2022/09/07 04:51:53;;;;;;;1.43;0.40;;;;;25.10;100106.00;;;;2095944;28;20224;-53
2022/09/07 04:52:53;;;;;;;0.80;0.50;;;;;25.10;100115.00;;;;2093171;28;20216;-54
2022/09/07 04:53:54;;;;;;;1.20;0.70;;;;;25.10;100106.00;;;;2095139;28;20204;-53
2022/09/07 04:54:54;;;;;;;1.10;0.70;;;;;25.00;100111.00;;;;2091444;28;20216;-53
2022/09/07 04:55:57;;;;;;;1.10;0.70;;;;;25.10;100111.00;;;;2087811;28;20205;-53
2022/09/07 04:56:57;;;;;;;1.20;0.50;;;;;25.10;100106.00;;;;2087774;28;20295;-53
2022/09/07 04:57:57;;;;;;;1.87;0.70;;;;;25.10;100105.00;;;;2086764;28;20443;-53
2022/09/07 04:58:59;;;;;;;1.20;0.60;;;;;25.10;100105.00;;;;2087828;28;20247;-52
2022/09/07 05:00:00;;;;;;;1.20;0.50;;;;;25.10;100097.00;;;;2087758;28;20205;-53
2022/09/07 05:01:01;;;;;;;1.20;0.50;;;;;25.10;100102.00;;;;2093754;28;20553;-53
2022/09/07 05:02:01;;;;;;;1.47;0.60;;;;;25.10;100102.00;;;;2083293;28;20217;-53
2022/09/07 05:03:01;;;;;;;1.23;0.70;;;;;25.10;100145.00;;;;2086885;28;20451;-52
2022/09/07 05:04:02;;;;;;;1.00;0.60;;;;;25.10;100103.00;;;;2093251;28;20733;-53
2022/09/07 05:05:04;;;;;;;0.90;0.60;;;;;25.10;100108.00;;;;2095276;28;23895;-53
2022/09/07 05:06:04;;;;;;;1.20;0.50;;;;;25.10;100103.00;;;;2093925;28;20227;-52
2022/09/07 05:07:05;;;;;;;2.23;0.70;;;;;25.10;100101.00;;;;2095804;28;20950;-53
2022/09/07 05:08:05;;;;;;;1.37;0.70;;;;;25.10;100105.00;;;;2095170;28;20219;-53
2022/09/07 05:09:05;;;;;;;0.90;0.60;;;;;25.10;100095.00;;;;2089467;28;20213;-53
2022/09/07 05:10:06;;;;;;;1.20;0.60;;;;;25.10;100095.00;;;;2087779;28;20262;-52
2022/09/07 05:11:07;;;;;;;1.00;0.60;;;;;25.00;100103.00;;;;2087815;28;20213;-53
2022/09/07 05:12:07;;;;;;;1.70;0.80;;;;;25.00;100099.00;;;;2089362;28;20220;-53
2022/09/07 05:13:07;;;;;;;1.27;0.80;;;;;25.10;100106.00;;;;2095944;28;20512;-52
2022/09/07 05:14:08;;;;;;;0.70;0.50;;;;;25.10;100113.00;;;;2096056;28;20216;-53
2022/09/07 05:15:09;;;;;;;1.13;1.03;;;;;25.10;100104.00;;;;2095670;28;20219;-52
2022/09/07 05:16:17;;;;;;;1.43;0.70;;;;;25.10;100109.00;;;;2095942;28;20601;-52